Time;durP1;ratioP1;P1;durP2;ratioP2;P2;SDS_P1;SDS_P2;PMS_P1;PMS_P2;Temp;Humidity;BMP_temperature;BMP_pressure;BME280_temperature;BME280_humidity;BME280_pressure;Samples;Min_cycle;Max_cycle;Signal;HPM_P1;HPM_P2
2023/11/26 00:00:49;;;;;;;0.10;0.10;;;0.20;93.60;;;;;;5042546;28;20045;-77
2023/11/26 00:03:15;;;;;;;0.10;0.10;;;0.20;93.60;;;;;;5044211;28;20036;-76
2023/11/26 00:05:40;;;;;;;0.08;0.08;;;0.20;93.70;;;;;;5042836;28;20492;-77
2023/11/26 00:08:06;;;;;;;0.10;0.10;;;0.20;93.80;;;;;;5044825;28;20032;-76
2023/11/26 00:10:32;;;;;;;0.03;0.03;;;0.10;93.90;;;;;;5039815;28;20455;-77
2023/11/26 00:12:58;;;;;;;0.10;0.10;;;0.10;94.10;;;;;;5044096;28;20107;-76
2023/11/26 00:15:23;;;;;;;0.10;0.10;;;0.00;94.50;;;;;;5041095;28;20087;-78
2023/11/26 00:17:49;;;;;;;0.43;0.43;;;0.00;94.40;;;;;;5043729;28;20033;-77
2023/11/26 00:20:16;;;;;;;0.03;0.03;;;-0.10;94.70;;;;;;5045160;28;20412;-78
2023/11/26 00:22:42;;;;;;;0.00;0.00;;;-0.20;94.90;;;;;;5036593;28;20028;-78
2023/11/26 00:25:08;;;;;;;0.85;0.47;;;-0.20;95.20;;;;;;5033209;28;20029;-79
2023/11/26 00:27:33;;;;;;;0.00;0.00;;;-0.30;95.40;;;;;;5044469;28;20052;-77
2023/11/26 00:29:59;;;;;;;0.03;0.03;;;-0.40;95.70;;;;;;5042970;28;20037;-78
2023/11/26 00:32:25;;;;;;;0.10;0.10;;;-0.40;96.00;;;;;;5036022;28;20025;-77
2023/11/26 00:34:51;;;;;;;0.00;0.00;;;-0.40;96.00;;;;;;5031506;28;20040;-76
2023/11/26 00:37:17;;;;;;;0.10;0.10;;;-0.50;96.20;;;;;;5034564;28;20053;-76
2023/11/26 00:39:43;;;;;;;0.10;0.10;;;-0.40;96.50;;;;;;5040001;28;20444;-76
2023/11/26 00:42:08;;;;;;;0.00;0.00;;;-0.40;96.60;;;;;;5044762;28;20127;-76
2023/11/26 00:44:35;;;;;;;0.10;0.10;;;-0.40;96.60;;;;;;5044956;28;20043;-76
2023/11/26 00:47:01;;;;;;;0.10;0.10;;;-0.30;96.40;;;;;;5049688;28;20020;-76
2023/11/26 00:49:26;;;;;;;0.03;0.03;;;-0.30;96.40;;;;;;5047738;28;20845;-77
2023/11/26 00:51:52;;;;;;;0.10;0.10;;;-0.20;96.30;;;;;;5044901;28;20120;-77
2023/11/26 00:54:18;;;;;;;0.00;0.00;;;-0.30;96.50;;;;;;5043776;28;20132;-77
2023/11/26 00:56:44;;;;;;;0.10;0.10;;;-0.30;96.50;;;;;;5042248;28;20036;-76
2023/11/26 00:59:10;;;;;;;0.10;0.10;;;-0.20;96.50;;;;;;5033955;28;20499;-78
2023/11/26 01:01:35;;;;;;;0.10;0.10;;;-0.20;96.30;;;;;;5039218;28;20124;-76
2023/11/26 01:04:01;;;;;;;0.10;0.10;;;-0.20;96.50;;;;;;5041320;28;20515;-78
2023/11/26 01:06:27;;;;;;;0.43;0.43;;;-0.20;96.30;;;;;;5039045;28;20551;-77
2023/11/26 01:08:53;;;;;;;0.00;0.00;;;-0.20;96.30;;;;;;5044349;28;20039;-77
2023/11/26 01:11:19;;;;;;;0.08;0.08;;;-0.20;96.20;;;;;;5040680;28;20120;-78
2023/11/26 01:13:45;;;;;;;0.00;0.00;;;-0.20;96.20;;;;;;5038516;28;20658;-77
2023/11/26 01:16:10;;;;;;;0.00;0.00;;;-0.10;96.00;;;;;;5044313;28;20032;-77
2023/11/26 01:18:38;;;;;;;0.10;0.10;;;-0.10;95.90;;;;;;5044115;28;20035;-79
2023/11/26 01:21:05;;;;;;;0.05;0.05;;;-0.10;96.00;;;;;;5038224;28;20140;-76
2023/11/26 01:23:30;;;;;;;0.10;0.10;;;-0.20;96.10;;;;;;5040463;28;20664;-76
2023/11/26 01:25:56;;;;;;;0.45;0.45;;;-0.20;96.20;;;;;;5038820;28;20030;-77
2023/11/26 01:28:22;;;;;;;0.10;0.10;;;-0.20;96.10;;;;;;5037169;28;20032;-77
2023/11/26 01:30:48;;;;;;;0.10;0.10;;;-0.20;96.20;;;;;;5042588;28;20315;-78
2023/11/26 01:33:14;;;;;;;0.00;0.00;;;-0.30;96.20;;;;;;5051366;28;20446;-77
2023/11/26 01:35:40;;;;;;;0.10;0.10;;;-0.20;96.10;;;;;;5042797;28;20445;-77
2023/11/26 01:38:06;;;;;;;0.10;0.10;;;-0.20;96.10;;;;;;5040274;28;20041;-78
2023/11/26 01:40:38;;;;;;;0.10;0.10;;;-0.20;96.10;;;;;;5043441;28;20033;-77
2023/11/26 01:43:05;;;;;;;0.03;0.03;;;-0.30;96.00;;;;;;5039811;28;20039;-77
2023/11/26 01:45:30;;;;;;;4.28;3.90;;;-0.30;96.20;;;;;;5042602;28;20052;-77
2023/11/26 01:47:58;;;;;;;0.93;0.93;;;-0.40;96.30;;;;;;5040685;28;20228;-77
2023/11/26 01:50:24;;;;;;;0.10;0.10;;;-0.40;96.40;;;;;;5040621;28;20070;-77
2023/11/26 01:52:52;;;;;;;0.10;0.10;;;-0.40;96.60;;;;;;5043451;28;20460;-76
2023/11/26 01:55:19;;;;;;;0.10;0.10;;;-0.50;96.70;;;;;;5039927;28;20095;-78
2023/11/26 01:57:45;;;;;;;;;;;-0.50;97.00;;;;;;5042260;28;20021;-76
2023/11/26 02:00:14;;;;;;;0.10;0.10;;;-0.50;96.80;;;;;;5043301;28;19913;-76
2023/11/26 02:02:40;;;;;;;0.05;0.05;;;-0.60;97.10;;;;;;5042617;28;20573;-79
2023/11/26 02:05:15;;;;;;;0.10;0.10;;;-0.80;97.30;;;;;;5039287;28;20025;-78
2023/11/26 02:07:42;;;;;;;5.63;4.90;;;-0.80;97.60;;;;;;5037389;28;20564;-78
2023/11/26 02:10:08;;;;;;;0.10;0.10;;;-0.70;97.50;;;;;;5039798;28;20021;-79
2023/11/26 02:12:34;;;;;;;0.10;0.10;;;-0.70;97.50;;;;;;5041545;28;20119;-78
2023/11/26 02:15:01;;;;;;;0.10;0.10;;;-0.70;97.50;;;;;;5038920;28;20112;-78
2023/11/26 02:17:27;;;;;;;0.00;0.00;;;-0.70;97.60;;;;;;5041072;28;20033;-78
2023/11/26 02:19:55;;;;;;;0.10;0.10;;;-0.70;97.60;;;;;;5041536;28;20029;-77
2023/11/26 02:22:21;;;;;;;0.00;0.00;;;-0.70;97.60;;;;;;5042025;28;20036;-77
2023/11/26 02:24:47;;;;;;;0.43;0.43;;;-0.70;97.70;;;;;;5043397;28;20028;-78
2023/11/26 02:27:14;;;;;;;0.10;0.10;;;-0.70;97.70;;;;;;5043069;28;20032;-77
2023/11/26 02:29:40;;;;;;;0.10;0.10;;;-0.70;97.70;;;;;;5041535;28;20599;-78
2023/11/26 02:32:07;;;;;;;0.22;0.22;;;-0.70;97.90;;;;;;5039380;28;20591;-79
2023/11/26 02:34:33;;;;;;;0.10;0.10;;;-0.80;98.10;;;;;;5040126;28;20017;-78
2023/11/26 02:36:59;;;;;;;9.80;1.98;;;-0.80;98.30;;;;;;5042788;28;20143;-78
2023/11/26 02:39:28;;;;;;;0.10;0.10;;;-0.90;98.40;;;;;;5042646;28;20110;-78
2023/11/26 02:41:54;;;;;;;0.10;0.10;;;-0.90;98.60;;;;;;5039405;28;20373;-77
2023/11/26 02:44:20;;;;;;;0.10;0.10;;;-0.90;98.70;;;;;;5042905;28;20060;-77
2023/11/26 02:46:47;;;;;;;0.10;0.10;;;-0.90;98.80;;;;;;5034028;28;20728;-77
2023/11/26 02:49:13;;;;;;;0.00;0.00;;;-0.90;98.80;;;;;;5042434;28;20032;-77
2023/11/26 02:51:39;;;;;;;0.10;0.10;;;-0.90;98.90;;;;;;5042287;28;20033;-78
2023/11/26 02:54:04;;;;;;;0.10;0.10;;;-1.00;98.90;;;;;;5041098;28;20052;-76
2023/11/26 02:56:31;;;;;;;;;;;-1.00;99.00;;;;;;5041709;28;20056;-77
2023/11/26 02:58:57;;;;;;;0.10;0.10;;;-0.90;99.20;;;;;;5039154;28;20398;-77
2023/11/26 03:01:25;;;;;;;0.10;0.10;;;-1.00;99.20;;;;;;5037008;28;20850;-77
2023/11/26 03:03:50;;;;;;;0.10;0.10;;;-0.90;99.20;;;;;;5042110;28;20017;-77
2023/11/26 03:06:16;;;;;;;0.10;0.10;;;-0.90;99.30;;;;;;5040153;28;20024;-79
2023/11/26 03:08:44;;;;;;;0.10;0.10;;;-1.00;99.20;;;;;;5039705;28;20490;-78
2023/11/26 03:13:55;;;;;;;0.10;0.10;;;-1.00;99.70;;;;;;5034787;28;20726;-78
2023/11/26 03:16:24;;;;;;;0.10;0.10;;;-1.10;99.90;;;;;;5042135;28;20029;-79
2023/11/26 03:18:50;;;;;;;0.35;0.35;;;-1.00;99.90;;;;;;5042510;28;20103;-78
2023/11/26 03:21:18;;;;;;;0.10;0.10;;;-1.00;99.80;;;;;;5035564;28;20025;-78
2023/11/26 03:23:45;;;;;;;;;;;-0.90;99.50;;;;;;5040764;28;20584;-78
2023/11/26 03:26:12;;;;;;;0.10;0.10;;;-1.00;99.50;;;;;;5041170;28;19919;-79
2023/11/26 03:28:40;;;;;;;0.10;0.10;;;-0.90;99.40;;;;;;5041777;28;20028;-77
2023/11/26 03:31:06;;;;;;;0.10;0.10;;;-0.90;99.10;;;;;;5036321;28;20028;-77
2023/11/26 03:33:32;;;;;;;0.10;0.10;;;-0.80;99.10;;;;;;5036575;28;20035;-77
2023/11/26 03:35:57;;;;;;;0.08;0.08;;;-0.80;99.00;;;;;;5039589;28;20075;-77
2023/11/26 03:38:23;;;;;;;0.10;0.10;;;-0.90;99.00;;;;;;5041824;28;20538;-77
2023/11/26 03:40:49;;;;;;;0.30;0.30;;;-1.00;99.20;;;;;;5037216;28;20041;-77
2023/11/26 03:43:15;;;;;;;3.30;1.25;;;-1.10;99.70;;;;;;5041459;28;20124;-77
2023/11/26 03:45:41;;;;;;;0.00;0.00;;;-1.20;99.90;;;;;;5043976;28;20032;-77
2023/11/26 03:48:07;;;;;;;2.58;2.38;;;-1.20;99.90;;;;;;5041781;28;20400;-78
2023/11/26 03:50:35;;;;;;;0.10;0.10;;;-1.10;99.90;;;;;;5037423;28;20033;-79
2023/11/26 03:53:00;;;;;;;0.03;0.03;;;-1.20;99.80;;;;;;5035143;28;20110;-77
2023/11/26 03:55:26;;;;;;;0.10;0.10;;;-1.20;99.90;;;;;;5036713;28;20045;-77
2023/11/26 03:57:52;;;;;;;0.10;0.10;;;-1.20;99.90;;;;;;5041627;28;20033;-76
2023/11/26 04:00:18;;;;;;;0.10;0.10;;;-1.30;99.90;;;;;;5043717;28;20040;-77
2023/11/26 04:02:44;;;;;;;0.10;0.10;;;-1.30;99.90;;;;;;5043349;28;20029;-77
2023/11/26 04:05:10;;;;;;;0.10;0.10;;;-1.30;99.90;;;;;;5039865;28;20094;-77
2023/11/26 04:07:36;;;;;;;0.40;0.40;;;-1.20;99.90;;;;;;5044971;28;20484;-76
2023/11/26 04:10:03;;;;;;;0.10;0.10;;;-1.20;99.90;;;;;;5044159;28;20087;-76
2023/11/26 04:12:29;;;;;;;0.10;0.10;;;-1.20;99.90;;;;;;5044694;28;20025;-76
2023/11/26 04:15:02;;;;;;;0.10;0.10;;;-1.10;99.70;;;;;;5038149;28;20031;-77
2023/11/26 04:17:28;;;;;;;0.10;0.10;;;-1.10;99.50;;;;;;5041268;28;20044;-77
2023/11/26 04:19:57;;;;;;;0.10;0.10;;;-1.10;99.40;;;;;;5041206;28;20470;-77
2023/11/26 04:22:24;;;;;;;0.10;0.10;;;-1.10;99.40;;;;;;5038717;28;20814;-76
2023/11/26 04:24:50;;;;;;;;;;;-1.10;99.30;;;;;;5044295;28;20033;-78
2023/11/26 04:27:21;;;;;;;0.90;0.90;;;-1.10;99.20;;;;;;5041279;28;20290;-76
2023/11/26 04:29:47;;;;;;;0.10;0.10;;;-1.20;99.30;;;;;;5045137;28;20044;-77
2023/11/26 04:32:13;;;;;;;0.10;0.10;;;-1.10;99.30;;;;;;5040393;28;20028;-78
2023/11/26 04:34:40;;;;;;;0.10;0.10;;;-1.20;99.00;;;;;;5043665;28;20035;-76
2023/11/26 04:37:09;;;;;;;0.10;0.10;;;-1.10;98.90;;;;;;5038305;28;20202;-77
2023/11/26 04:39:35;;;;;;;0.10;0.10;;;-1.10;98.80;;;;;;5045269;28;20492;-77
2023/11/26 04:42:02;;;;;;;0.10;0.10;;;-1.20;98.80;;;;;;5045949;28;20381;-77
2023/11/26 04:44:28;;;;;;;0.10;0.10;;;-1.30;99.60;;;;;;5043139;28;20230;-79
2023/11/26 04:46:53;;;;;;;0.10;0.10;;;-1.40;99.50;;;;;;5040544;28;20850;-77
2023/11/26 04:49:19;;;;;;;0.00;0.00;;;-1.30;99.30;;;;;;5042614;28;20089;-77
2023/11/26 04:51:46;;;;;;;0.10;0.10;;;-1.30;99.20;;;;;;5042656;28;20033;-77
2023/11/26 04:54:12;;;;;;;0.10;0.10;;;-1.30;99.30;;;;;;5043369;28;20836;-76
2023/11/26 04:56:41;;;;;;;0.03;0.03;;;-1.30;99.20;;;;;;5044172;28;20041;-77
2023/11/26 04:59:07;;;;;;;0.10;0.10;;;-1.20;99.10;;;;;;5040384;28;20094;-77
2023/11/26 05:01:38;;;;;;;0.20;0.20;;;-1.20;98.90;;;;;;5043754;28;20040;-77
2023/11/26 05:04:06;;;;;;;0.10;0.10;;;-1.20;98.90;;;;;;5040677;28;20029;-77
2023/11/26 05:06:32;;;;;;;0.10;0.10;;;-1.20;99.00;;;;;;5043482;28;20040;-77
2023/11/26 05:08:58;;;;;;;0.13;0.13;;;-1.20;98.90;;;;;;5042799;28;20028;-76
2023/11/26 05:11:26;;;;;;;0.10;0.10;;;-1.10;98.50;;;;;;5042467;28;20032;-77
2023/11/26 05:13:51;;;;;;;0.10;0.10;;;-1.10;98.40;;;;;;5038555;28;20049;-76
2023/11/26 05:16:17;;;;;;;0.17;0.17;;;-1.00;98.30;;;;;;5042804;28;20916;-77
2023/11/26 05:18:43;;;;;;;0.10;0.10;;;-1.10;98.40;;;;;;5043370;28;20036;-77
2023/11/26 05:21:09;;;;;;;0.10;0.10;;;-1.10;98.40;;;;;;5042770;28;20400;-77
2023/11/26 05:23:35;;;;;;;0.03;0.03;;;-1.20;98.50;;;;;;5037774;28;20041;-79
2023/11/26 05:26:02;;;;;;;0.10;0.10;;;-1.30;98.70;;;;;;5042079;28;20082;-77
2023/11/26 05:28:29;;;;;;;0.10;0.10;;;-1.30;98.80;;;;;;5043554;28;20029;-79
2023/11/26 05:30:54;;;;;;;0.05;0.05;;;-1.30;99.10;;;;;;5041253;28;20036;-76
2023/11/26 05:33:20;;;;;;;0.10;0.10;;;-1.40;99.60;;;;;;5041658;28;20033;-76
2023/11/26 05:35:46;;;;;;;0.05;0.05;;;-1.60;99.90;;;;;;5040028;28;20033;-76
2023/11/26 05:38:12;;;;;;;0.10;0.10;;;-1.70;99.90;;;;;;5041726;28;20025;-78
2023/11/26 05:40:37;;;;;;;0.03;0.03;;;-1.70;99.90;;;;;;5038643;28;20116;-78
2023/11/26 05:43:03;;;;;;;0.10;0.10;;;-1.70;99.90;;;;;;5043687;28;20545;-77
2023/11/26 05:45:29;;;;;;;0.10;0.10;;;-1.80;99.90;;;;;;5036407;28;20033;-77
2023/11/26 05:47:55;;;;;;;0.75;0.75;;;-1.80;99.90;;;;;;5041578;28;20089;-78
2023/11/26 05:50:21;;;;;;;0.10;0.10;;;-1.70;99.90;;;;;;5041721;28;20570;-77
2023/11/26 05:52:46;;;;;;;0.10;0.10;;;-1.70;99.90;;;;;;5041862;28;20043;-77
2023/11/26 05:55:12;;;;;;;5.68;3.90;;;-1.80;99.90;;;;;;5041729;28;20822;-78
2023/11/26 05:57:38;;;;;;;0.20;0.20;;;-1.80;99.90;;;;;;5043116;28;20092;-79
2023/11/26 06:00:05;;;;;;;0.10;0.10;;;-1.60;99.90;;;;;;5044027;28;20039;-77
2023/11/26 06:02:31;;;;;;;0.10;0.10;;;-1.60;99.90;;;;;;5041660;28;20396;-78
2023/11/26 06:04:57;;;;;;;0.10;0.10;;;-1.60;99.90;;;;;;5041951;28;20033;-77
2023/11/26 06:07:23;;;;;;;0.10;0.10;;;-1.60;99.90;;;;;;5041860;28;20033;-77
2023/11/26 06:09:49;;;;;;;0.15;0.15;;;-1.60;99.90;;;;;;5040993;28;20033;-77
2023/11/26 06:12:14;;;;;;;0.20;0.20;;;-1.70;99.90;;;;;;5041789;28;20039;-77
2023/11/26 06:14:40;;;;;;;0.10;0.10;;;-1.70;99.90;;;;;;5038256;28;20033;-77
2023/11/26 06:17:05;;;;;;;0.10;0.10;;;-1.70;99.90;;;;;;5051671;28;20056;-77
2023/11/26 06:19:31;;;;;;;0.10;0.10;;;-1.60;99.90;;;;;;5043001;28;20060;-77
2023/11/26 06:21:57;;;;;;;0.10;0.10;;;-1.50;99.90;;;;;;5033229;28;20168;-77
2023/11/26 06:24:23;;;;;;;0.20;0.20;;;-1.60;99.90;;;;;;5039814;28;20036;-77
2023/11/26 06:26:51;;;;;;;0.00;0.00;;;-1.70;99.90;;;;;;5040975;28;20024;-77
2023/11/26 06:29:17;;;;;;;0.10;0.10;;;-1.60;99.90;;;;;;5041135;28;20086;-76
2023/11/26 06:31:44;;;;;;;0.10;0.10;;;-1.50;99.90;;;;;;5049502;28;20029;-77
2023/11/26 06:34:10;;;;;;;0.10;0.10;;;-1.60;99.90;;;;;;5040606;28;20040;-77
2023/11/26 06:36:36;;;;;;;0.10;0.10;;;-1.50;99.90;;;;;;5042670;28;20037;-76
2023/11/26 06:39:06;;;;;;;0.10;0.10;;;-1.50;99.90;;;;;;5043057;28;20075;-77
2023/11/26 06:41:31;;;;;;;0.10;0.10;;;-1.50;99.90;;;;;;5041361;28;20021;-77
2023/11/26 06:43:59;;;;;;;0.10;0.10;;;-1.60;99.90;;;;;;5041224;28;20578;-76
2023/11/26 06:46:29;;;;;;;0.10;0.10;;;-1.60;99.90;;;;;;5038614;28;20033;-76
2023/11/26 06:48:55;;;;;;;0.10;0.10;;;-1.60;99.90;;;;;;5039757;28;20048;-75
2023/11/26 06:51:22;;;;;;;0.10;0.10;;;-1.60;99.90;;;;;;5041168;28;20024;-76
2023/11/26 06:53:49;;;;;;;0.10;0.10;;;-1.50;99.90;;;;;;5041091;28;20060;-76
2023/11/26 06:56:15;;;;;;;0.10;0.10;;;-1.60;99.90;;;;;;5041045;28;20063;-76
2023/11/26 06:58:43;;;;;;;0.00;0.00;;;-1.60;99.90;;;;;;5044083;28;20024;-76
2023/11/26 07:01:10;;;;;;;0.10;0.10;;;-1.70;99.90;;;;;;5041481;28;20029;-77
2023/11/26 07:03:36;;;;;;;0.10;0.10;;;-1.60;99.90;;;;;;5040728;28;20128;-76
2023/11/26 07:06:07;;;;;;;0.10;0.10;;;-1.60;99.90;;;;;;5039959;28;20039;-77
2023/11/26 07:08:33;;;;;;;0.10;0.10;;;-1.50;99.90;;;;;;5036245;28;20029;-77
2023/11/26 07:10:58;;;;;;;0.10;0.10;;;-1.50;99.90;;;;;;5040604;28;20507;-76
2023/11/26 07:13:25;;;;;;;0.10;0.10;;;-1.50;99.90;;;;;;5037454;28;20029;-75
2023/11/26 07:15:51;;;;;;;0.03;0.03;;;-1.50;99.90;;;;;;5038258;28;20040;-76
2023/11/26 07:18:18;;;;;;;0.10;0.10;;;-1.60;99.90;;;;;;5037281;28;20025;-76
2023/11/26 07:20:45;;;;;;;;;;;-1.60;99.90;;;;;;5036692;28;20033;-77
2023/11/26 07:23:11;;;;;;;0.10;0.10;;;-1.60;99.90;;;;;;5039446;28;19912;-76
2023/11/26 07:25:39;;;;;;;0.10;0.10;;;-1.70;99.90;;;;;;5035614;28;20041;-79
2023/11/26 07:28:16;;;;;;;0.10;0.10;;;-1.60;99.90;;;;;;5036858;28;20056;-76
2023/11/26 07:30:42;;;;;;;0.10;0.10;;;-1.50;99.90;;;;;;5037117;28;20821;-77
2023/11/26 07:33:08;;;;;;;0.00;0.00;;;-1.50;99.90;;;;;;5043240;28;20025;-76
2023/11/26 07:35:34;;;;;;;0.10;0.10;;;-1.30;99.90;;;;;;5044802;28;20084;-76
2023/11/26 07:38:01;;;;;;;0.10;0.10;;;-0.70;99.50;;;;;;5043010;28;20540;-76
2023/11/26 07:40:30;;;;;;;0.10;0.10;;;-0.20;97.90;;;;;;5042749;28;20057;-76
2023/11/26 07:42:56;;;;;;;0.00;0.00;;;-0.30;97.40;;;;;;5039101;28;20530;-77
2023/11/26 07:45:22;;;;;;;0.10;0.10;;;0.20;96.80;;;;;;5045265;28;20033;-76
2023/11/26 07:47:47;;;;;;;0.10;0.10;;;0.40;96.30;;;;;;5033873;28;20404;-77
2023/11/26 07:50:13;;;;;;;0.10;0.10;;;0.50;95.70;;;;;;5043443;28;20091;-78
2023/11/26 07:52:39;;;;;;;1.00;1.00;;;0.50;95.50;;;;;;5045213;28;20029;-76
2023/11/26 07:55:06;;;;;;;0.10;0.10;;;0.70;95.20;;;;;;5040009;28;20056;-78
2023/11/26 07:57:32;;;;;;;0.05;0.05;;;0.70;94.80;;;;;;5036852;28;20070;-77
2023/11/26 07:59:59;;;;;;;0.10;0.10;;;0.80;95.00;;;;;;5045565;28;20025;-78
2023/11/26 08:02:26;;;;;;;0.10;0.10;;;1.00;94.40;;;;;;5037386;28;20037;-77
2023/11/26 08:04:53;;;;;;;0.00;0.00;;;1.10;93.80;;;;;;5067721;28;20072;-77
2023/11/26 08:07:23;;;;;;;0.00;0.00;;;1.20;93.80;;;;;;5044439;28;20029;-77
2023/11/26 08:09:53;;;;;;;0.10;0.10;;;1.30;93.30;;;;;;5038946;28;20496;-77
2023/11/26 08:12:23;;;;;;;0.10;0.10;;;1.30;93.10;;;;;;5043031;28;20021;-77
2023/11/26 08:14:52;;;;;;;0.10;0.10;;;1.60;92.90;;;;;;5045470;28;20025;-77
2023/11/26 08:17:22;;;;;;;0.10;0.10;;;1.60;92.40;;;;;;5027705;28;20040;-76
2023/11/26 08:19:48;;;;;;;0.10;0.10;;;1.80;92.10;;;;;;5041337;28;20025;-77
2023/11/26 08:22:15;;;;;;;0.10;0.10;;;2.30;91.90;;;;;;5039194;28;20112;-75
2023/11/26 08:24:42;;;;;;;;;;;2.20;91.70;;;;;;5043793;28;20096;-75
2023/11/26 08:27:13;;;;;;;0.03;0.03;;;2.00;91.80;;;;;;5042532;28;19912;-75
2023/11/26 08:29:42;;;;;;;0.10;0.10;;;2.00;91.90;;;;;;5043451;28;20095;-75
2023/11/26 08:32:12;;;;;;;0.10;0.10;;;2.30;91.60;;;;;;5042285;28;20359;-75
2023/11/26 08:34:41;;;;;;;0.10;0.10;;;2.10;91.70;;;;;;5042098;28;20025;-75
2023/11/26 08:37:08;;;;;;;0.10;0.10;;;2.30;91.40;;;;;;5044568;28;20028;-76
2023/11/26 08:39:38;;;;;;;0.10;0.10;;;2.40;91.20;;;;;;5043489;28;20024;-77
2023/11/26 08:42:08;;;;;;;0.10;0.10;;;2.40;91.20;;;;;;5045144;28;20095;-76
2023/11/26 08:44:34;;;;;;;0.08;0.08;;;2.50;91.00;;;;;;5041154;28;20031;-77
2023/11/26 08:47:01;;;;;;;0.38;0.38;;;2.50;90.70;;;;;;5032688;28;20029;-79
2023/11/26 08:49:28;;;;;;;0.10;0.10;;;2.50;90.60;;;;;;5040536;28;20596;-78
2023/11/26 08:51:55;;;;;;;0.10;0.10;;;2.60;90.80;;;;;;5035562;28;20025;-78
2023/11/26 08:54:21;;;;;;;;;;;2.60;91.30;;;;;;5041055;28;20434;-76
2023/11/26 08:56:47;;;;;;;0.10;0.10;;;2.50;91.20;;;;;;5045035;28;20326;-77
2023/11/26 08:59:12;;;;;;;0.35;0.35;;;2.50;91.70;;;;;;5043168;28;20033;-76
2023/11/26 09:01:38;;;;;;;0.10;0.10;;;2.60;90.70;;;;;;5036685;28;20061;-76
2023/11/26 09:04:05;;;;;;;0.00;0.00;;;2.60;91.20;;;;;;5033420;28;20034;-76
2023/11/26 09:06:30;;;;;;;0.10;0.10;;;2.70;90.90;;;;;;5029915;28;20045;-75
2023/11/26 09:08:56;;;;;;;0.10;0.10;;;2.70;90.30;;;;;;5038496;28;20033;-77
2023/11/26 09:11:22;;;;;;;0.10;0.10;;;3.00;90.50;;;;;;5042278;28;20029;-76
2023/11/26 09:13:48;;;;;;;0.10;0.10;;;3.00;89.80;;;;;;5042727;28;20031;-75
2023/11/26 09:16:17;;;;;;;0.10;0.10;;;3.10;89.50;;;;;;5041480;28;20026;-76
2023/11/26 09:18:43;;;;;;;0.10;0.10;;;3.40;88.90;;;;;;5033467;28;20371;-75
2023/11/26 09:21:10;;;;;;;0.10;0.10;;;3.10;89.30;;;;;;5043312;28;20068;-75
2023/11/26 09:23:36;;;;;;;0.10;0.10;;;3.10;89.40;;;;;;5043667;28;20029;-75
2023/11/26 09:26:02;;;;;;;1.08;1.05;;;3.10;87.70;;;;;;5033361;28;20037;-75
2023/11/26 09:28:30;;;;;;;0.08;0.08;;;3.30;88.40;;;;;;5041109;28;20066;-75
2023/11/26 09:30:55;;;;;;;0.10;0.10;;;3.40;88.40;;;;;;5053722;28;20025;-74
2023/11/26 09:33:22;;;;;;;0.10;0.10;;;3.70;87.70;;;;;;5043523;28;20025;-75
2023/11/26 09:35:47;;;;;;;0.10;0.10;;;4.00;87.50;;;;;;5043619;28;20036;-78
2023/11/26 09:38:14;;;;;;;0.10;0.10;;;3.90;87.80;;;;;;5039311;28;20039;-75
2023/11/26 09:40:41;;;;;;;0.08;0.08;;;3.80;87.20;;;;;;5045528;28;20029;-74
2023/11/26 09:43:07;;;;;;;0.10;0.10;;;4.00;88.20;;;;;;5041865;28;20069;-75
2023/11/26 09:45:33;;;;;;;0.00;0.00;;;4.20;87.40;;;;;;5030015;28;20532;-76
2023/11/26 09:47:59;;;;;;;0.10;0.10;;;4.20;87.20;;;;;;5038566;28;20539;-75
2023/11/26 09:50:24;;;;;;;0.10;0.10;;;4.30;88.20;;;;;;5038634;28;20025;-75
2023/11/26 09:52:51;;;;;;;0.10;0.10;;;4.10;87.30;;;;;;5042441;28;20462;-73
2023/11/26 09:55:17;;;;;;;0.10;0.10;;;4.00;87.90;;;;;;5037773;28;20427;-75
2023/11/26 09:57:42;;;;;;;0.28;0.28;;;4.30;87.40;;;;;;5038641;28;20052;-76
2023/11/26 10:00:12;;;;;;;0.10;0.10;;;4.50;87.30;;;;;;5041372;28;20098;-75
2023/11/26 10:02:38;;;;;;;0.10;0.10;;;4.40;87.00;;;;;;5033943;28;20037;-74
2023/11/26 10:05:06;;;;;;;0.10;0.10;;;4.50;87.30;;;;;;5034945;28;20021;-74
2023/11/26 10:07:36;;;;;;;0.10;0.10;;;4.50;87.90;;;;;;5038485;28;20071;-74
2023/11/26 10:10:09;;;;;;;0.10;0.10;;;4.20;86.50;;;;;;5042419;28;20033;-75
2023/11/26 10:12:58;;;;;;;0.10;0.10;;;4.20;87.60;;;;;;5042857;28;20029;-76
2023/11/26 10:15:31;;;;;;;0.00;0.00;;;4.30;87.70;;;;;;5039762;28;20052;-76
2023/11/26 10:18:03;;;;;;;0.10;0.10;;;4.30;87.20;;;;;;5042078;28;20025;-76
2023/11/26 10:20:30;;;;;;;0.10;0.10;;;4.50;86.80;;;;;;5041255;28;20032;-77
2023/11/26 10:22:56;;;;;;;1.38;1.30;;;4.70;87.30;;;;;;5042394;28;20035;-80
2023/11/26 10:25:24;;;;;;;0.10;0.10;;;4.50;86.10;;;;;;5043060;28;20028;-79
2023/11/26 10:27:50;;;;;;;0.10;0.10;;;4.40;88.10;;;;;;5041645;28;20021;-80
2023/11/26 10:30:43;;;;;;;0.10;0.10;;;4.50;87.20;;;;;;5034172;28;20049;-80
2023/11/26 10:33:11;;;;;;;0.08;0.08;;;4.50;87.30;;;;;;5037574;28;20071;-80
2023/11/26 10:35:55;;;;;;;0.10;0.10;;;4.50;87.80;;;;;;5038395;28;20047;-81
2023/11/26 10:38:34;;;;;;;2.92;2.72;;;4.70;86.50;;;;;;5040266;28;20071;-79
2023/11/26 10:40:59;;;;;;;0.25;0.25;;;4.90;88.10;;;;;;5046233;28;20025;-80
2023/11/26 10:43:26;;;;;;;0.10;0.10;;;4.50;86.10;;;;;;5041019;28;20035;-79
2023/11/26 10:45:55;;;;;;;0.10;0.10;;;4.50;86.10;;;;;;5042503;28;20041;-79
2023/11/26 10:48:25;;;;;;;0.13;0.13;;;4.30;86.20;;;;;;5044643;28;20025;-81
2023/11/26 10:50:59;;;;;;;0.10;0.10;;;4.50;86.00;;;;;;5030894;28;20504;-79
2023/11/26 10:54:10;;;;;;;0.10;0.10;;;4.40;86.60;;;;;;5044307;28;20025;-79
2023/11/26 10:56:41;;;;;;;0.10;0.10;;;4.50;87.20;;;;;;5037384;28;20059;-80
2023/11/26 10:59:17;;;;;;;0.10;0.10;;;4.60;89.20;;;;;;5032765;28;20480;-79
2023/11/26 11:01:44;;;;;;;0.10;0.10;;;4.60;86.20;;;;;;5041367;28;20032;-80
2023/11/26 11:04:14;;;;;;;0.10;0.10;;;4.40;86.30;;;;;;5039989;28;20099;-80
2023/11/26 11:06:40;;;;;;;0.98;0.57;;;4.30;85.70;;;;;;5036139;28;20043;-80
2023/11/26 11:09:12;;;;;;;0.10;0.10;;;4.20;86.20;;;;;;5041381;28;20017;-79
2023/11/26 11:12:08;;;;;;;0.10;0.10;;;4.40;87.40;;;;;;5042028;28;20087;-79
2023/11/26 11:14:34;;;;;;;0.10;0.10;;;4.40;85.90;;;;;;5040674;28;20029;-79
2023/11/26 11:16:59;;;;;;;0.10;0.10;;;4.50;86.60;;;;;;5042757;28;20041;-79
2023/11/26 11:19:55;;;;;;;0.30;0.30;;;4.50;86.00;;;;;;5042974;28;20033;-79
2023/11/26 11:22:33;;;;;;;0.10;0.10;;;4.60;86.90;;;;;;5035135;28;20051;-79
2023/11/26 11:25:09;;;;;;;0.10;0.10;;;4.60;85.80;;;;;;5040910;28;20128;-79
2023/11/26 11:27:58;;;;;;;0.00;0.00;;;4.60;84.90;;;;;;5040922;28;20057;-79
2023/11/26 11:30:51;;;;;;;0.10;0.10;;;4.70;83.90;;;;;;5036637;28;20112;-80
2023/11/26 11:33:17;;;;;;;0.10;0.10;;;4.70;85.40;;;;;;5032226;28;20087;-80
2023/11/26 11:35:47;;;;;;;0.10;0.10;;;4.70;84.10;;;;;;5042342;28;20489;-80
2023/11/26 11:38:17;;;;;;;0.10;0.10;;;4.70;85.00;;;;;;5036687;28;20141;-79
2023/11/26 11:41:09;;;;;;;0.10;0.10;;;4.50;85.20;;;;;;5040936;28;20029;-79
2023/11/26 11:43:43;;;;;;;0.10;0.10;;;4.70;84.70;;;;;;5037952;28;20036;-79
2023/11/26 11:46:27;;;;;;;0.10;0.10;;;4.50;83.40;;;;;;5042930;28;20029;-79
2023/11/26 11:48:55;;;;;;;0.10;0.10;;;4.60;83.90;;;;;;5041920;28;20793;-80
2023/11/26 11:51:29;;;;;;;0.10;0.10;;;4.60;83.00;;;;;;5041867;28;20091;-80
2023/11/26 11:54:08;;;;;;;0.10;0.10;;;4.60;83.90;;;;;;5042450;28;20033;-79
2023/11/26 11:56:45;;;;;;;0.10;0.10;;;4.60;83.90;;;;;;5041118;28;20047;-80
2023/11/26 11:59:12;;;;;;;0.10;0.10;;;4.70;83.70;;;;;;5041916;28;20072;-79
2023/11/26 12:01:39;;;;;;;0.10;0.10;;;4.70;82.80;;;;;;5042198;28;20021;-79
2023/11/26 12:04:05;;;;;;;0.10;0.10;;;4.70;83.10;;;;;;5035422;28;20156;-79
2023/11/26 12:06:32;;;;;;;0.10;0.10;;;4.70;81.70;;;;;;5040531;28;20088;-79
2023/11/26 12:09:05;;;;;;;0.10;0.10;;;4.70;81.30;;;;;;5038827;28;20029;-80
2023/11/26 12:11:31;;;;;;;0.10;0.10;;;4.70;83.30;;;;;;5034528;28;20391;-80
2023/11/26 12:13:57;;;;;;;0.10;0.10;;;4.80;81.50;;;;;;5040299;28;20037;-80
2023/11/26 12:16:23;;;;;;;0.10;0.10;;;4.80;81.50;;;;;;5040535;28;20578;-80
2023/11/26 12:18:55;;;;;;;0.10;0.10;;;4.80;81.70;;;;;;5042101;28;20029;-80
2023/11/26 12:21:22;;;;;;;0.20;0.20;;;4.90;81.00;;;;;;5040090;28;20076;-79
2023/11/26 12:23:47;;;;;;;0.10;0.10;;;4.90;82.30;;;;;;5045055;28;20857;-79
2023/11/26 12:26:13;;;;;;;0.10;0.10;;;5.00;82.90;;;;;;5045569;28;20127;-79
2023/11/26 12:28:47;;;;;;;0.75;0.75;;;5.00;81.60;;;;;;5045400;28;20488;-79
2023/11/26 12:31:15;;;;;;;0.10;0.10;;;5.00;79.40;;;;;;5045878;28;20079;-81
2023/11/26 12:33:45;;;;;;;0.05;0.05;;;4.90;80.10;;;;;;5038271;28;20025;-80
2023/11/26 12:36:13;;;;;;;0.10;0.10;;;5.00;80.30;;;;;;5045458;28;20036;-80
2023/11/26 12:38:40;;;;;;;0.10;0.10;;;5.00;78.70;;;;;;5036594;28;20113;-80
2023/11/26 12:41:10;;;;;;;0.10;0.10;;;5.00;79.60;;;;;;5038661;28;20037;-79
2023/11/26 12:43:39;;;;;;;0.10;0.10;;;5.00;80.60;;;;;;5037514;28;20829;-79
2023/11/26 12:46:09;;;;;;;0.10;0.10;;;5.00;79.00;;;;;;5044646;28;20040;-78
2023/11/26 12:48:35;;;;;;;0.10;0.10;;;5.00;79.70;;;;;;5045532;28;20020;-79
2023/11/26 12:51:01;;;;;;;0.10;0.10;;;5.00;80.00;;;;;;5040295;28;20035;-79
2023/11/26 12:53:27;;;;;;;0.10;0.10;;;5.00;81.00;;;;;;5043579;28;20028;-79
2023/11/26 12:55:52;;;;;;;0.10;0.10;;;5.10;80.80;;;;;;5045176;28;20057;-79
2023/11/26 12:58:23;;;;;;;0.10;0.10;;;5.10;80.20;;;;;;5043008;28;20880;-79